Time;durP1;ratioP1;P1;durP2;ratioP2;P2;SDS_P1;SDS_P2;PMS_P1;PMS_P2;Temp;Humidity;BMP_temperature;BMP_pressure;BME280_temperature;BME280_humidity;BME280_pressure;Samples;Min_cycle;Max_cycle;Signal;HPM_P1;HPM_P2
2022/08/30 00:02:26;;;;;;;22.45;19.00;;;18.20;99.90;;;;;;5093902;28;20070;-73
2022/08/30 00:04:54;;;;;;;23.48;18.95;;;18.20;99.90;;;;;;5095466;28;20052;-73
2022/08/30 00:07:21;;;;;;;22.00;18.55;;;18.20;99.90;;;;;;5096178;28;20115;-73
2022/08/30 00:09:49;;;;;;;24.58;18.13;;;18.20;99.90;;;;;;5094867;28;20097;-74
2022/08/30 00:12:16;;;;;;;22.15;18.70;;;18.10;99.90;;;;;;5095533;28;20048;-73
2022/08/30 00:14:43;;;;;;;23.27;18.95;;;18.00;99.90;;;;;;5095149;28;20044;-73
2022/08/30 00:17:11;;;;;;;21.27;18.90;;;18.00;99.90;;;;;;5095762;28;20048;-73
2022/08/30 00:19:39;;;;;;;24.95;19.00;;;18.00;99.90;;;;;;5095528;28;20052;-73
2022/08/30 00:22:08;;;;;;;20.55;18.35;;;18.00;99.90;;;;;;5095696;28;20032;-73
2022/08/30 00:24:37;;;;;;;21.90;17.48;;;18.00;99.90;;;;;;5095568;28;20461;-74
2022/08/30 00:27:04;;;;;;;22.08;19.38;;;18.00;99.90;;;;;;5095702;28;20487;-74
2022/08/30 00:29:31;;;;;;;22.05;18.45;;;18.00;99.90;;;;;;5096010;28;20051;-74
2022/08/30 00:32:00;;;;;;;19.60;17.45;;;17.90;99.90;;;;;;5095228;28;20043;-73
2022/08/30 00:34:28;;;;;;;55.90;44.83;;;17.90;99.90;;;;;;5095101;28;20048;-73
2022/08/30 00:36:57;;;;;;;25.95;19.35;;;17.80;99.90;;;;;;5095434;28;20035;-73
2022/08/30 00:39:25;;;;;;;33.08;25.48;;;17.80;99.90;;;;;;5095512;28;20494;-73
2022/08/30 00:41:52;;;;;;;22.20;17.65;;;17.90;99.90;;;;;;5095150;28;20040;-73
2022/08/30 00:44:19;;;;;;;20.02;16.98;;;17.90;99.90;;;;;;5094801;28;20048;-73
2022/08/30 00:46:47;;;;;;;20.83;17.58;;;17.80;99.90;;;;;;5094804;28;20067;-73
2022/08/30 00:49:15;;;;;;;20.33;18.13;;;17.80;99.90;;;;;;5093739;28;20048;-73
2022/08/30 00:51:42;;;;;;;20.20;17.95;;;17.80;99.90;;;;;;5095018;28;20064;-73
2022/08/30 00:54:11;;;;;;;18.60;16.70;;;17.80;99.90;;;;;;5094890;28;20044;-74
2022/08/30 00:56:39;;;;;;;19.95;17.10;;;17.90;99.90;;;;;;5093346;28;20079;-73
2022/08/30 00:59:07;;;;;;;19.58;16.63;;;17.90;99.90;;;;;;5094840;28;20032;-74
2022/08/30 01:01:36;;;;;;;21.00;17.73;;;17.90;99.90;;;;;;5093153;28;20044;-73
2022/08/30 01:04:05;;;;;;;20.33;17.95;;;17.90;99.90;;;;;;5094738;28;20056;-74
2022/08/30 01:06:32;;;;;;;21.48;17.52;;;18.00;99.90;;;;;;5094758;28;20047;-72
2022/08/30 01:09:01;;;;;;;21.48;18.38;;;18.00;99.90;;;;;;5094968;28;20040;-72
2022/08/30 01:11:33;;;;;;;21.92;16.67;;;18.00;99.90;;;;;;5093939;28;20032;-72
2022/08/30 01:14:01;;;;;;;21.50;17.25;;;18.00;99.90;;;;;;5093942;28;20040;-74
2022/08/30 01:16:29;;;;;;;19.20;17.20;;;18.00;99.90;;;;;;5095045;28;20068;-73
2022/08/30 01:18:59;;;;;;;19.27;16.95;;;18.00;99.90;;;;;;5094316;28;20048;-74
2022/08/30 01:21:32;;;;;;;20.88;16.92;;;18.10;99.90;;;;;;5094743;28;20510;-74
2022/08/30 01:24:02;;;;;;;19.20;16.15;;;18.10;99.90;;;;;;5094060;28;20036;-74
2022/08/30 01:26:30;;;;;;;16.83;15.07;;;18.10;99.90;;;;;;5092814;28;20044;-73
2022/08/30 01:29:01;;;;;;;18.23;14.80;;;18.20;99.90;;;;;;5094171;28;20044;-73
2022/08/30 01:31:28;;;;;;;19.52;14.77;;;18.20;99.90;;;;;;5094313;28;20044;-74
2022/08/30 01:33:56;;;;;;;20.98;16.25;;;18.20;99.90;;;;;;5093775;28;20495;-74
2022/08/30 01:36:24;;;;;;;19.80;15.45;;;18.20;99.90;;;;;;5094059;28;20044;-74
2022/08/30 01:38:53;;;;;;;20.50;15.80;;;18.20;99.90;;;;;;5093597;28;20044;-73
2022/08/30 01:41:24;;;;;;;18.77;15.60;;;18.20;99.90;;;;;;5095245;28;20090;-73
2022/08/30 01:43:53;;;;;;;19.13;15.15;;;18.20;99.90;;;;;;5095785;28;20036;-74
2022/08/30 01:46:25;;;;;;;22.73;16.92;;;18.20;99.90;;;;;;5094199;28;20044;-73
2022/08/30 01:48:53;;;;;;;21.00;15.52;;;18.20;99.90;;;;;;5093900;28;20040;-74
2022/08/30 01:51:22;;;;;;;22.77;16.92;;;18.20;99.90;;;;;;5093974;28;20052;-73
2022/08/30 01:53:50;;;;;;;20.60;16.42;;;18.20;99.90;;;;;;5093597;28;20067;-73
2022/08/30 01:56:18;;;;;;;19.15;16.65;;;18.20;99.90;;;;;;5093610;28;20483;-73
2022/08/30 01:58:47;;;;;;;19.40;16.65;;;18.20;99.90;;;;;;5091897;28;20392;-73
2022/08/30 02:01:18;;;;;;;21.58;17.00;;;18.20;99.90;;;;;;5092398;28;20048;-74
2022/08/30 02:03:47;;;;;;;18.40;16.02;;;18.20;99.90;;;;;;5093209;28;20090;-73
2022/08/30 02:06:16;;;;;;;21.42;16.42;;;18.30;99.90;;;;;;5093732;28;20579;-73
2022/08/30 02:08:44;;;;;;;23.20;16.92;;;18.30;99.90;;;;;;5093293;28;20066;-72
2022/08/30 02:11:13;;;;;;;17.95;15.98;;;18.30;99.90;;;;;;5093810;28;20067;-73
2022/08/30 02:13:42;;;;;;;18.35;16.30;;;18.30;99.90;;;;;;5093437;28;20077;-74
2022/08/30 02:16:14;;;;;;;20.60;16.75;;;18.30;99.90;;;;;;5093670;28;20036;-73
2022/08/30 02:18:42;;;;;;;20.05;15.77;;;18.30;99.90;;;;;;5099893;28;20093;-73
2022/08/30 02:21:10;;;;;;;18.67;16.40;;;18.30;99.90;;;;;;5098748;28;20032;-74
2022/08/30 02:23:37;;;;;;;20.92;16.48;;;18.30;99.90;;;;;;5097984;28;20032;-73
2022/08/30 02:26:05;;;;;;;18.42;16.52;;;18.30;99.90;;;;;;5105110;28;20063;-73
2022/08/30 02:28:33;;;;;;;19.75;16.83;;;18.30;99.90;;;;;;5102167;28;20044;-74
2022/08/30 02:31:00;;;;;;;19.88;16.40;;;18.30;99.90;;;;;;5093628;28;20044;-73
2022/08/30 02:33:30;;;;;;;19.20;17.08;;;18.30;99.90;;;;;;5091849;28;20522;-73
2022/08/30 02:35:58;;;;;;;18.45;16.50;;;18.20;99.90;;;;;;5093359;28;20495;-75
2022/08/30 02:38:25;;;;;;;21.83;17.25;;;18.20;99.90;;;;;;5092683;28;20137;-73
2022/08/30 02:40:53;;;;;;;21.67;17.42;;;18.10;99.90;;;;;;5092022;28;20131;-73
2022/08/30 02:43:20;;;;;;;22.35;17.85;;;18.10;99.90;;;;;;5092818;28;20089;-73
2022/08/30 02:45:48;;;;;;;20.65;18.10;;;18.10;99.90;;;;;;5093808;28;20043;-73
2022/08/30 02:48:15;;;;;;;20.92;18.10;;;18.20;99.90;;;;;;5093265;28;20068;-74
2022/08/30 02:50:46;;;;;;;24.00;18.95;;;18.10;99.90;;;;;;5093277;28;20110;-73
2022/08/30 02:53:14;;;;;;;23.80;19.80;;;18.10;99.90;;;;;;5092704;28;20445;-73
2022/08/30 02:55:42;;;;;;;23.98;19.88;;;18.10;99.90;;;;;;5092862;28;20123;-73
2022/08/30 02:58:10;;;;;;;27.27;20.13;;;18.10;99.90;;;;;;5092891;28;20048;-74
2022/08/30 03:00:40;;;;;;;22.85;19.50;;;18.00;99.90;;;;;;5093081;28;20044;-73
2022/08/30 03:03:07;;;;;;;24.30;18.45;;;18.10;99.90;;;;;;5092871;28;20172;-73
2022/08/30 03:05:35;;;;;;;24.33;20.45;;;18.10;99.90;;;;;;5092766;28;20048;-74
2022/08/30 03:08:03;;;;;;;23.23;20.48;;;18.10;99.90;;;;;;5092714;28;20044;-73
2022/08/30 03:10:31;;;;;;;25.52;20.60;;;18.10;99.90;;;;;;5092920;28;20040;-73
2022/08/30 03:12:59;;;;;;;25.85;20.73;;;18.10;99.90;;;;;;5092542;28;20512;-73
2022/08/30 03:15:26;;;;;;;23.45;20.88;;;18.00;99.90;;;;;;5093231;28;20047;-73
2022/08/30 03:17:55;;;;;;;25.77;20.25;;;18.00;99.90;;;;;;5093171;28;20125;-73
2022/08/30 03:20:23;;;;;;;23.98;20.75;;;18.10;99.90;;;;;;5092817;28;20073;-73
2022/08/30 03:22:51;;;;;;;23.38;20.98;;;18.00;99.90;;;;;;5092360;28;20526;-74
2022/08/30 03:25:20;;;;;;;23.35;20.65;;;17.90;99.90;;;;;;5092815;28;20119;-74
2022/08/30 03:27:49;;;;;;;24.63;20.38;;;17.90;99.90;;;;;;5092754;28;20036;-74
2022/08/30 03:30:17;;;;;;;23.35;20.75;;;17.90;99.90;;;;;;5093203;28;20093;-73
2022/08/30 03:32:44;;;;;;;23.13;20.48;;;17.90;99.90;;;;;;5092742;28;20056;-73
2022/08/30 03:35:13;;;;;;;23.80;19.63;;;17.90;99.90;;;;;;5092386;28;20119;-74
2022/08/30 03:37:40;;;;;;;29.05;19.23;;;18.00;99.90;;;;;;5093429;28;20487;-73
2022/08/30 03:40:09;;;;;;;23.33;20.80;;;17.90;99.90;;;;;;5096897;28;20090;-74
2022/08/30 03:42:38;;;;;;;26.00;20.70;;;17.90;99.90;;;;;;5094685;28;20466;-74
2022/08/30 03:45:07;;;;;;;24.35;20.95;;;17.80;99.90;;;;;;5096334;28;20052;-75
2022/08/30 03:47:34;;;;;;;25.42;21.15;;;17.80;99.90;;;;;;5096202;28;20495;-74
2022/08/30 03:50:03;;;;;;;26.48;22.15;;;17.80;99.90;;;;;;5095558;28;20040;-75
2022/08/30 03:52:31;;;;;;;27.75;21.98;;;17.70;99.90;;;;;;5095975;28;20156;-75
2022/08/30 03:54:59;;;;;;;24.77;22.08;;;17.60;99.90;;;;;;5095884;28;20071;-75
2022/08/30 03:57:26;;;;;;;25.02;22.23;;;17.60;99.90;;;;;;5095949;28;20063;-74
2022/08/30 03:59:55;;;;;;;26.35;21.27;;;17.60;99.90;;;;;;5095792;28;20097;-75
2022/08/30 04:02:23;;;;;;;27.65;22.50;;;17.60;99.90;;;;;;5095787;28;20380;-74
2022/08/30 04:04:50;;;;;;;25.63;22.30;;;17.60;99.90;;;;;;5095387;28;20093;-75
2022/08/30 04:07:18;;;;;;;25.73;21.35;;;17.60;99.90;;;;;;5096185;28;20059;-74
2022/08/30 04:09:46;;;;;;;27.00;21.63;;;17.60;99.90;;;;;;5096149;28;20127;-74
2022/08/30 04:12:13;;;;;;;25.02;21.90;;;17.60;99.90;;;;;;5095119;28;20044;-75
2022/08/30 04:14:40;;;;;;;24.67;22.02;;;17.60;99.90;;;;;;5095622;28;20052;-74
2022/08/30 04:17:09;;;;;;;28.00;21.92;;;17.60;99.90;;;;;;5096010;28;20044;-74
2022/08/30 04:19:36;;;;;;;26.98;20.95;;;17.60;99.90;;;;;;5095462;28;20553;-75
2022/08/30 04:22:04;;;;;;;25.40;20.48;;;17.60;99.90;;;;;;5095867;28;20071;-74
2022/08/30 04:24:33;;;;;;;28.55;21.05;;;17.70;99.90;;;;;;5095194;28;20036;-75
2022/08/30 04:27:00;;;;;;;24.98;20.60;;;17.70;99.90;;;;;;5095082;28;20126;-75
2022/08/30 04:29:28;;;;;;;24.27;19.88;;;17.70;99.90;;;;;;5095280;28;20048;-75
2022/08/30 04:31:55;;;;;;;28.67;21.70;;;17.70;99.90;;;;;;5099176;28;20048;-75
2022/08/30 04:34:24;;;;;;;26.05;20.48;;;17.80;99.90;;;;;;5096760;28;20051;-72
2022/08/30 04:36:51;;;;;;;26.05;19.77;;;17.80;99.90;;;;;;5096952;28;20036;-76
2022/08/30 04:39:19;;;;;;;23.38;19.90;;;17.90;99.90;;;;;;5095616;28;20052;-74
2022/08/30 04:41:47;;;;;;;24.60;19.80;;;17.90;99.90;;;;;;5096545;28;20411;-75
2022/08/30 04:44:15;;;;;;;22.38;19.83;;;17.90;99.90;;;;;;5094886;28;20473;-74
2022/08/30 04:46:42;;;;;;;26.45;20.20;;;17.90;99.90;;;;;;5095334;28;20042;-75
2022/08/30 04:49:09;;;;;;;23.55;20.70;;;17.90;99.90;;;;;;5095043;28;20039;-74
2022/08/30 04:51:38;;;;;;;29.80;20.40;;;17.90;99.90;;;;;;5095400;28;20089;-74
2022/08/30 04:54:06;;;;;;;41.97;22.45;;;17.90;99.90;;;;;;5094074;28;20055;-74
2022/08/30 04:56:33;;;;;;;27.85;20.67;;;17.90;99.90;;;;;;5094941;28;20075;-74
2022/08/30 04:59:01;;;;;;;27.75;22.83;;;18.00;99.90;;;;;;5094906;28;20405;-74
2022/08/30 05:01:30;;;;;;;27.65;22.25;;;18.00;99.90;;;;;;5095918;28;20446;-74
2022/08/30 05:03:59;;;;;;;23.05;18.58;;;18.10;99.90;;;;;;5095633;28;20183;-75
2022/08/30 05:06:29;;;;;;;27.63;20.40;;;18.20;99.90;;;;;;5094017;28;20055;-75
2022/08/30 05:08:59;;;;;;;26.92;18.17;;;18.20;99.90;;;;;;5093505;28;20055;-74
2022/08/30 05:11:30;;;;;;;20.80;18.10;;;18.30;99.90;;;;;;5094712;28;20055;-74
2022/08/30 05:13:57;;;;;;;23.58;18.70;;;18.30;99.90;;;;;;5093692;28;20036;-74
2022/08/30 05:16:25;;;;;;;21.65;18.42;;;18.50;99.90;;;;;;5094484;28;20044;-74
2022/08/30 05:18:53;;;;;;;23.65;17.20;;;18.50;99.90;;;;;;5093694;28;20040;-74
2022/08/30 05:21:24;;;;;;;32.20;18.67;;;18.60;99.90;;;;;;5090179;28;20407;-75
2022/08/30 05:23:53;;;;;;;20.48;17.42;;;18.70;99.90;;;;;;5094068;28;20063;-74
2022/08/30 05:26:24;;;;;;;21.45;17.98;;;18.80;99.90;;;;;;5094023;28;20109;-75
2022/08/30 05:28:53;;;;;;;27.00;19.30;;;18.80;99.90;;;;;;5074077;28;20049;-75
2022/08/30 05:31:23;;;;;;;28.67;20.20;;;18.80;99.90;;;;;;5093372;28;20511;-75
2022/08/30 05:33:52;;;;;;;21.52;17.85;;;18.90;99.90;;;;;;5087248;28;20169;-74
2022/08/30 05:36:21;;;;;;;21.98;18.05;;;19.10;99.90;;;;;;5086338;28;20043;-76
2022/08/30 05:38:48;;;;;;;20.23;18.05;;;19.30;99.90;;;;;;5091080;28;20438;-74
2022/08/30 05:41:16;;;;;;;30.85;18.13;;;19.60;99.90;;;;;;5098442;28;20060;-73
2022/08/30 05:43:45;;;;;;;21.77;18.10;;;19.90;99.90;;;;;;5097381;28;20387;-73
2022/08/30 05:46:17;;;;;;;20.30;16.92;;;20.10;99.90;;;;;;5094361;28;20113;-74
2022/08/30 05:48:45;;;;;;;20.98;17.75;;;20.20;99.90;;;;;;5094885;28;20146;-74
2022/08/30 05:51:16;;;;;;;20.83;17.95;;;20.30;99.90;;;;;;5095479;28;20127;-74
2022/08/30 05:53:44;;;;;;;19.63;16.45;;;20.40;99.90;;;;;;5093343;28;20456;-74
2022/08/30 05:56:17;;;;;;;20.70;16.85;;;20.50;99.90;;;;;;5082989;28;20109;-73
2022/08/30 05:58:46;;;;;;;20.05;16.55;;;20.40;99.90;;;;;;5093482;28;20124;-74
2022/08/30 06:01:21;;;;;;;22.33;16.77;;;20.40;99.90;;;;;;5086603;28;20032;-74
2022/08/30 06:03:49;;;;;;;20.23;17.88;;;20.40;99.90;;;;;;5088458;28;20048;-75
2022/08/30 06:06:16;;;;;;;22.13;17.55;;;20.40;99.90;;;;;;5088949;28;20066;-74
2022/08/30 06:08:45;;;;;;;21.85;17.55;;;20.40;99.90;;;;;;5092467;28;20120;-74
2022/08/30 06:11:13;;;;;;;23.42;18.05;;;20.50;99.90;;;;;;5091438;28;20037;-75
2022/08/30 06:13:41;;;;;;;23.80;17.25;;;20.40;99.90;;;;;;5087346;28;20115;-74
2022/08/30 06:16:11;;;;;;;19.90;17.85;;;20.60;99.90;;;;;;5092732;28;20047;-74
2022/08/30 06:18:38;;;;;;;21.02;16.80;;;20.60;99.90;;;;;;5085950;28;20419;-75
2022/08/30 06:21:06;;;;;;;20.85;17.45;;;20.70;99.90;;;;;;5092070;28;20044;-73
2022/08/30 06:23:33;;;;;;;24.60;16.83;;;20.80;99.90;;;;;;5090576;28;20059;-74
2022/08/30 06:26:04;;;;;;;24.63;19.42;;;21.00;99.90;;;;;;5086405;28;20036;-74
2022/08/30 06:28:32;;;;;;;21.13;18.23;;;21.20;99.90;;;;;;5090588;28;20562;-74
2022/08/30 06:30:59;;;;;;;26.65;19.60;;;21.30;99.90;;;;;;5092282;28;20127;-74
2022/08/30 06:33:28;;;;;;;21.08;18.77;;;21.50;99.90;;;;;;5090134;28;20040;-74
2022/08/30 06:35:56;;;;;;;19.08;15.85;;;21.60;99.90;;;;;;5086515;28;20491;-75
2022/08/30 06:38:23;;;;;;;20.77;16.05;;;21.80;99.90;;;;;;5091186;28;20072;-73
2022/08/30 06:40:50;;;;;;;19.35;17.17;;;21.80;99.90;;;;;;5091760;28;20101;-75
2022/08/30 06:43:17;;;;;;;22.02;18.27;;;21.60;99.90;;;;;;5092314;28;20439;-74
2022/08/30 06:45:45;;;;;;;19.48;16.88;;;21.70;99.90;;;;;;5091701;28;20036;-74
2022/08/30 06:48:13;;;;;;;22.15;16.35;;;21.70;99.90;;;;;;5091596;28;20043;-74
2022/08/30 06:50:42;;;;;;;19.05;15.45;;;21.80;99.90;;;;;;5092827;28;20048;-76
2022/08/30 06:53:09;;;;;;;22.05;17.33;;;21.90;99.90;;;;;;5091516;28;20052;-74
2022/08/30 06:55:37;;;;;;;17.48;15.23;;;22.30;99.90;;;;;;5091482;28;20052;-73
2022/08/30 06:58:05;;;;;;;19.33;17.10;;;22.60;99.90;;;;;;5087633;28;20121;-74
2022/08/30 07:00:32;;;;;;;24.17;16.85;;;22.90;99.90;;;;;;5092451;28;20051;-74
2022/08/30 07:03:01;;;;;;;25.20;18.23;;;23.00;99.90;;;;;;5091885;28;20048;-74
2022/08/30 07:05:28;;;;;;;29.30;19.30;;;23.10;99.90;;;;;;5092089;28;20044;-72
2022/08/30 07:07:57;;;;;;;37.47;24.80;;;23.40;99.90;;;;;;5089105;28;20056;-74
2022/08/30 07:10:24;;;;;;;29.08;20.95;;;23.40;99.90;;;;;;5083569;28;20384;-74
2022/08/30 07:12:51;;;;;;;36.42;24.48;;;23.60;99.90;;;;;;5091076;28;20040;-74
2022/08/30 07:15:21;;;;;;;42.35;28.88;;;23.60;1.00;;;;;;5090991;28;20096;-73
2022/08/30 07:20:34;;;;;;;52.67;33.15;;;23.70;1.00;;;;;;5093719;28;20034;-74
2022/08/30 07:23:03;;;;;;;50.35;31.05;;;23.60;1.00;;;;;;5097111;28;20071;-73
2022/08/30 07:25:30;;;;;;;46.55;31.65;;;23.50;1.00;;;;;;5101704;28;20126;-74
2022/08/30 07:27:58;;;;;;;46.13;30.90;;;23.40;1.00;;;;;;5097200;28;20051;-74
2022/08/30 07:30:25;;;;;;;49.05;29.30;;;23.70;1.00;;;;;;5097935;28;20112;-73
2022/08/30 07:32:52;;;;;;;45.17;31.45;;;23.90;1.00;;;;;;5095142;28;20044;-74
2022/08/30 07:35:20;;;;;;;41.80;29.38;;;24.30;99.90;;;;;;5095364;28;20036;-74
2022/08/30 07:37:47;;;;;;;43.70;27.65;;;24.60;1.00;;;;;;5086452;28;20043;-73
2022/08/30 07:40:16;;;;;;;48.10;28.38;;;24.90;1.00;;;;;;5096049;28;20136;-73
2022/08/30 07:42:44;;;;;;;45.67;29.90;;;25.00;1.00;;;;;;5095493;28;20044;-74
2022/08/30 07:45:12;;;;;;;36.28;24.60;;;24.70;1.00;;;;;;5084221;28;20045;-75
2022/08/30 07:47:39;;;;;;;41.45;24.02;;;24.80;1.00;;;;;;5072378;28;20049;-73
2022/08/30 07:50:08;;;;;;;39.67;25.40;;;24.70;45.80;;;;;;5073936;28;20044;-74
2022/08/30 07:52:35;;;;;;;35.40;23.10;;;24.50;99.90;;;;;;5086516;28;20491;-73
2022/08/30 07:55:03;;;;;;;36.40;23.83;;;24.20;99.90;;;;;;5102006;28;20040;-75
2022/08/30 07:57:33;;;;;;;36.55;24.27;;;24.30;1.00;;;;;;5113601;28;20066;-74
2022/08/30 08:00:01;;;;;;;43.75;23.35;;;24.30;1.00;;;;;;5115642;28;20112;-73
2022/08/30 08:02:39;;;;;;;35.33;22.80;;;24.60;1.00;;;;;;5115895;28;20123;-73
2022/08/30 08:05:08;;;;;;;42.05;28.02;;;24.80;99.90;;;;;;5109891;28;20047;-74
2022/08/30 08:07:36;;;;;;;39.65;26.15;;;25.10;99.90;;;;;;5096807;28;20185;-73
2022/08/30 08:10:04;;;;;;;36.92;22.98;;;25.30;1.00;;;;;;5095900;28;20463;-73
2022/08/30 08:12:33;;;;;;;37.35;23.70;;;25.50;99.90;;;;;;5096311;28;20089;-73
2022/08/30 08:15:00;;;;;;;40.45;25.83;;;25.60;99.90;;;;;;5097395;28;20051;-74
2022/08/30 08:17:28;;;;;;;33.15;20.77;;;25.60;99.90;;;;;;5096011;28;20048;-73
2022/08/30 08:19:55;;;;;;;27.48;18.60;;;25.50;99.90;;;;;;5095332;28;20071;-73
2022/08/30 08:22:22;;;;;;;33.70;20.52;;;25.30;1.00;;;;;;5095799;28;20064;-73
2022/08/30 08:24:50;;;;;;;29.77;21.63;;;25.10;1.00;;;;;;5094999;28;20048;-73
2022/08/30 08:27:18;;;;;;;34.78;22.05;;;24.90;1.00;;;;;;5095255;28;20128;-73
2022/08/30 08:29:46;;;;;;;40.22;25.80;;;24.90;1.00;;;;;;5095353;28;20093;-74
2022/08/30 08:32:14;;;;;;;38.35;25.25;;;24.70;1.00;;;;;;5094006;28;20083;-73
2022/08/30 08:34:41;;;;;;;46.85;28.13;;;24.70;1.00;;;;;;5094879;28;20445;-73
2022/08/30 08:37:08;;;;;;;35.95;21.85;;;24.90;99.90;;;;;;5095533;28;20496;-73
2022/08/30 08:39:35;;;;;;;35.85;21.38;;;24.90;1.00;;;;;;5093175;28;20056;-73
2022/08/30 08:42:10;;;;;;;35.28;21.33;;;25.20;1.00;;;;;;5095023;28;20040;-73
2022/08/30 08:44:50;;;;;;;26.60;16.83;;;25.50;1.00;;;;;;5094777;28;20542;-74
2022/08/30 08:47:25;;;;;;;22.58;14.75;;;25.80;1.00;;;;;;5094797;28;20044;-73
2022/08/30 08:49:56;;;;;;;28.95;14.77;;;26.00;99.90;;;;;;5094525;28;20058;-74
2022/08/30 08:55:14;;;;;;;24.38;14.60;;;26.20;99.90;;;;;;5094977;28;20051;-73
2022/08/30 08:57:42;;;;;;;27.52;16.25;;;26.00;1.00;;;;;;5095169;28;20036;-73
2022/08/30 09:00:14;;;;;;;23.92;14.52;;;25.80;99.90;;;;;;5095876;28;20044;-72
2022/08/30 09:02:44;;;;;;;20.02;13.95;;;25.70;1.00;;;;;;5095947;28;20036;-72
2022/08/30 09:05:17;;;;;;;21.40;14.35;;;25.60;1.00;;;;;;5096472;28;20044;-72
2022/08/30 09:07:50;;;;;;;24.98;14.68;;;25.20;1.00;;;;;;5098435;28;20047;-74
2022/08/30 09:10:18;;;;;;;25.50;15.07;;;25.30;99.90;;;;;;5094821;28;20055;-73
2022/08/30 09:12:46;;;;;;;21.67;14.98;;;25.30;1.00;;;;;;5096121;28;20363;-73
2022/08/30 09:15:19;;;;;;;25.60;14.68;;;25.20;1.00;;;;;;5100629;28;20101;-74
2022/08/30 09:17:57;;;;;;;25.60;15.57;;;25.40;53.90;;;;;;5100653;28;20052;-72
2022/08/30 09:20:27;;;;;;;19.83;13.93;;;25.70;1.00;;;;;;5099332;28;20063;-73
2022/08/30 09:22:54;;;;;;;22.23;14.73;;;25.90;1.00;;;;;;5098745;28;20062;-73
2022/08/30 09:25:26;;;;;;;21.00;14.95;;;26.10;99.90;;;;;;5095910;28;20055;-72
2022/08/30 09:27:55;;;;;;;22.10;14.65;;;26.40;99.90;;;;;;5094450;28;20169;-73
2022/08/30 09:30:27;;;;;;;26.63;13.77;;;26.40;1.00;;;;;;5094620;28;20077;-73
2022/08/30 09:32:56;;;;;;;22.10;13.57;;;26.30;1.00;;;;;;5094377;28;20051;-72
2022/08/30 09:35:26;;;;;;;24.30;15.63;;;26.40;1.00;;;;;;5093705;28;20040;-73
2022/08/30 09:37:56;;;;;;;26.02;15.38;;;26.30;1.00;;;;;;5094917;28;20048;-74
2022/08/30 09:40:31;;;;;;;26.90;16.48;;;26.40;1.00;;;;;;5094734;28;20491;-76
2022/08/30 09:43:01;;;;;;;27.02;14.13;;;26.40;1.00;;;;;;5096042;28;20040;-76
2022/08/30 09:45:34;;;;;;;25.25;15.07;;;26.40;1.00;;;;;;5093206;28;20139;-76
2022/08/30 09:48:27;;;;;;;20.25;13.65;;;26.60;1.00;;;;;;5096376;28;20128;-77
2022/08/30 09:51:08;;;;;;;23.73;13.18;;;26.60;1.00;;;;;;5105484;28;20081;-77
2022/08/30 09:53:42;;;;;;;22.05;15.25;;;26.70;1.00;;;;;;5086822;28;20052;-76
2022/08/30 09:56:15;;;;;;;19.90;13.48;;;27.20;1.00;;;;;;5090909;28;20054;-76
2022/08/30 09:59:00;;;;;;;16.45;12.88;;;27.60;1.00;;;;;;5095996;28;20138;-76
2022/08/30 10:01:33;;;;;;;20.13;13.43;;;27.90;99.90;;;;;;5099210;28;20040;-76
2022/08/30 10:04:10;;;;;;;21.80;13.05;;;28.00;1.00;;;;;;5084246;28;20040;-77
2022/08/30 10:06:44;;;;;;;25.38;15.45;;;27.90;99.90;;;;;;5096549;28;20070;-76
2022/08/30 10:09:21;;;;;;;20.58;13.43;;;27.90;99.90;;;;;;5096046;28;20418;-76
2022/08/30 10:11:54;;;;;;;27.33;18.90;;;27.90;1.00;;;;;;5094538;28;20063;-76
2022/08/30 10:14:51;;;;;;;23.48;14.80;;;28.00;99.90;;;;;;5077404;28;20106;-77
2022/08/30 10:17:37;;;;;;;22.55;14.27;;;27.90;99.90;;;;;;5053673;28;20051;-76
2022/08/30 10:20:17;;;;;;;47.30;38.28;;;27.70;90.50;;;;;;5082006;28;20067;-76
2022/08/30 10:22:48;;;;;;;19.30;14.45;;;27.50;1.00;;;;;;5082687;28;20045;-76
2022/08/30 10:25:20;;;;;;;30.02;22.92;;;27.80;1.00;;;;;;5083302;28;20040;-76
2022/08/30 10:27:54;;;;;;;17.42;13.43;;;28.00;99.90;;;;;;5078673;28;20036;-76
2022/08/30 10:30:23;;;;;;;20.70;14.07;;;27.70;99.90;;;;;;5088331;28;20082;-75
2022/08/30 10:32:58;;;;;;;19.88;13.75;;;27.70;1.00;;;;;;5072954;28;20541;-77
2022/08/30 10:35:29;;;;;;;22.58;15.07;;;27.60;99.40;;;;;;5073099;28;20135;-76
2022/08/30 10:38:01;;;;;;;25.67;15.95;;;27.30;1.00;;;;;;5101012;28;20059;-76
2022/08/30 10:43:23;;;;;;;29.42;21.38;;;27.40;1.00;;;;;;5103191;28;20465;-75
2022/08/30 10:45:53;;;;;;;26.83;18.13;;;27.30;1.00;;;;;;5101730;28;20033;-75
2022/08/30 10:48:28;;;;;;;26.15;18.90;;;27.30;1.00;;;;;;5109917;28;20130;-76
2022/08/30 10:51:01;;;;;;;27.20;20.95;;;26.90;99.90;;;;;;5098306;28;20051;-75
2022/08/30 10:53:32;;;;;;;27.40;18.60;;;26.60;1.00;;;;;;5098536;28;20036;-77
2022/08/30 10:56:03;;;;;;;25.25;19.42;;;26.60;99.90;;;;;;5097553;28;20044;-76
2022/08/30 10:58:31;;;;;;;33.00;24.10;;;26.70;99.90;;;;;;5097411;28;20035;-77
2022/08/30 11:01:19;;;;;;;40.92;28.80;;;26.70;1.00;;;;;;5097843;28;20046;-75
2022/08/30 11:04:40;;;;;;;28.20;22.52;;;26.70;99.90;;;;;;5097102;28;20044;-77
2022/08/30 11:07:17;;;;;;;20.75;17.58;;;26.80;82.10;;;;;;5073179;28;20105;-78
2022/08/30 11:10:03;;;;;;;25.73;17.90;;;26.80;69.70;;;;;;5099207;28;20059;-77
2022/08/30 11:12:37;;;;;;;22.48;16.50;;;26.60;1.00;;;;;;5097762;28;20071;-79
2022/08/30 11:15:18;;;;;;;21.63;16.60;;;26.50;1.00;;;;;;5097611;28;20036;-77
2022/08/30 11:17:54;;;;;;;23.33;19.00;;;26.70;1.00;;;;;;5097232;28;20059;-77
2022/08/30 11:20:33;;;;;;;20.60;14.32;;;26.60;1.00;;;;;;5087675;28;20053;-77
2022/08/30 11:23:32;;;;;;;17.70;12.48;;;25.90;78.60;;;;;;5075774;28;20052;-76
2022/08/30 11:26:02;;;;;;;10.45;6.88;;;25.70;99.90;;;;;;5095334;28;20044;-76
2022/08/30 11:29:04;;;;;;;11.23;7.50;;;25.20;99.90;;;;;;5089613;28;20408;-79
2022/08/30 11:31:40;;;;;;;10.05;8.02;;;24.90;1.00;;;;;;5076641;28;20389;-78
2022/08/30 11:34:08;;;;;;;;;;;25.10;1.00;;;;;;5096293;28;20044;-78
2022/08/30 11:37:07;;;;;;;12.20;9.52;;;24.70;99.90;;;;;;5097930;28;19963;-78
2022/08/30 11:39:56;;;;;;;15.30;10.18;;;24.60;1.00;;;;;;5086973;28;20064;-79
2022/08/30 11:42:30;;;;;;;12.70;10.23;;;24.40;1.00;;;;;;5094450;28;20052;-78
2022/08/30 11:45:35;;;;;;;18.95;13.10;;;24.40;1.00;;;;;;5100999;28;20079;-80
2022/08/30 11:48:06;;;;;;;15.23;10.52;;;24.50;1.00;;;;;;5100011;28;20119;-80
2022/08/30 11:50:41;;;;;;;15.75;11.77;;;24.60;1.00;;;;;;5101065;28;20109;-79
2022/08/30 11:53:20;;;;;;;12.83;11.23;;;24.40;1.00;;;;;;5098626;28;20511;-80
2022/08/30 11:55:59;;;;;;;15.85;11.85;;;24.50;1.00;;;;;;5097412;28;20326;-80
2022/08/30 11:58:42;;;;;;;12.45;10.70;;;24.70;1.00;;;;;;5096116;28;20036;-78
2022/08/30 12:01:30;;;;;;;11.60;9.75;;;25.00;99.90;;;;;;5097869;28;20101;-77
2022/08/30 12:04:01;;;;;;;10.52;8.95;;;25.30;1.00;;;;;;5095435;28;20052;-77
2022/08/30 12:06:48;;;;;;;13.98;10.10;;;25.70;1.00;;;;;;5095475;28;20032;-78
2022/08/30 12:10:03;;;;;;;17.00;10.43;;;26.00;1.00;;;;;;5096936;28;20068;-78
2022/08/30 12:12:51;;;;;;;14.32;10.90;;;25.80;1.00;;;;;;5089903;28;20055;-77
2022/08/30 12:15:54;;;;;;;15.77;11.20;;;26.00;1.00;;;;;;5098307;28;20040;-77
2022/08/30 12:18:32;;;;;;;11.07;9.43;;;26.40;31.70;;;;;;5097268;28;20421;-75
2022/08/30 12:21:08;;;;;;;13.02;9.10;;;26.40;99.90;;;;;;5088428;28;20081;-77
2022/08/30 12:23:40;;;;;;;14.23;10.15;;;26.40;1.00;;;;;;5089447;28;20488;-76
2022/08/30 12:26:30;;;;;;;11.65;10.50;;;26.30;99.90;;;;;;5094065;28;20032;-75
2022/08/30 12:29:12;;;;;;;14.23;10.40;;;26.40;1.00;;;;;;5099815;28;20501;-75
2022/08/30 12:31:43;;;;;;;18.00;14.85;;;26.20;99.90;;;;;;5100347;28;20047;-75
2022/08/30 12:34:20;;;;;;;14.13;10.88;;;26.10;1.00;;;;;;5097670;28;20074;-74
2022/08/30 12:36:56;;;;;;;13.43;12.05;;;25.90;99.90;;;;;;5104092;28;20483;-75
2022/08/30 12:39:25;;;;;;;14.27;12.60;;;25.80;99.90;;;;;;5085321;28;20052;-73
2022/08/30 12:41:53;;;;;;;16.80;12.15;;;25.80;99.90;;;;;;5103035;28;20046;-75
2022/08/30 12:44:24;;;;;;;17.48;13.02;;;25.80;99.90;;;;;;5112420;28;20108;-75
2022/08/30 12:46:55;;;;;;;16.05;13.38;;;25.80;91.20;;;;;;5103018;28;20490;-74
2022/08/30 12:49:27;;;;;;;14.68;12.43;;;25.80;99.90;;;;;;5096868;28;20048;-74
2022/08/30 12:51:55;;;;;;;16.23;13.43;;;25.80;1.00;;;;;;5096610;28;20044;-76
2022/08/30 12:54:26;;;;;;;15.38;13.77;;;25.70;24.30;;;;;;5089772;28;20072;-74
2022/08/30 12:56:58;;;;;;;17.98;15.65;;;25.60;99.90;;;;;;5086902;28;20056;-75
2022/08/30 12:59:41;;;;;;;18.55;15.93;;;25.60;99.90;;;;;;5092691;28;20479;-73